To NAV CANADA Home Page Login to a new session Search on AWWS site Feedback and Comments Disclaimer Vers la page française équivalente Tips FAQ What's new on the site To the Forecasts and Observations / NOTAM section To "File a Flight Plan" website Publications and other links Update of the User's profile FIC Telephone Numbers My Weather Data Folder Route Weather Data Regional Weather Data Local Weather Data To the Forecasts and Observations / NOTAM section
Request Generated 08/22/2017 at 03:20:19 UTC . Weather information available at that time is displayed.

METAR/TAF

SLAVE LAKE/AB    (show WxCam)

METAR CYZH 220300Z AUTO VRB02KT 9SM FEW055 OVC084 16/14 A3002 RMK
SLP177 DENSITY ALT 2300FT=
SPECI CYZH 220242Z AUTO 00000KT 9SM OVC095 16/14 A3002 RMK SLP179
DENSITY ALT 2300FT=
SPECI CYZH 220219Z AUTO 21002KT 9SM -RA BKN100 BKN120 17/14 A3002 RMK
SLP177 DENSITY ALT 2400FT=
METAR CYZH 220200Z AUTO 22002KT 9SM SCT100 17/14 A3002 RMK SLP177
DENSITY ALT 2400FT=
METAR CYZH 220100Z AUTO VRB02KT 9SM FEW060 18/13 A3002 RMK SLP178
DENSITY ALT 2500FT=

TAF CYZH 220038Z 2201/2213 VRB03KT P6SM BKN060 BKN200
BECMG 2204/2206 14006KT
RMK FCST BASED ON AUTO OBS. NXT FCST BY 220700Z=
Your time UTC time
Weather data provided by Environment Canada and NAV CANADA